Salt Lake City, Utah
Traffic Map
Current Weather Conditions
Salt Lake City, Utah
Clear
Clear
49°
Feels Like: 45°
Wind Chill: 45° Ceiling: Unl
Heat Index: 49° Visibility: 10mi
Dew Point: 39° Wind: 8mph
Humidity: 69% Direction: 160° (SSE)
Pressure: 30.23in Gusts: 0mph
Raw Report DataKSLC 280653Z 16007KT 10SM CLR 09/04 A3023 RMK AO2 SLP216 T00940039 401560039
Traffic Incident Summary
Active as of:
Severity:
Category:
InformationThere was an issue retrieving the traffic information for this location. Please try a different location or try again shortly.
Advertisements
Track Severe Weather on mobile